Time;durP1;ratioP1;P1;durP2;ratioP2;P2;SDS_P1;SDS_P2;PMS_P1;PMS_P2;Temp;Humidity;BMP_temperature;BMP_pressure;BME280_temperature;BME280_humidity;BME280_pressure;Samples;Min_cycle;Max_cycle;Signal;HPM_P1;HPM_P2
2022/06/07 00:01:28;;;;;;;2.47;2.33;;;-40.00;99.90;;;;;;5136317;27;20249;-74
2022/06/07 00:03:54;;;;;;;2.23;1.97;;;-40.00;99.90;;;;;;5136342;28;20200;-68
2022/06/07 00:06:19;;;;;;;5.60;2.37;;;-40.00;99.90;;;;;;5135946;27;20583;-77
2022/06/07 00:08:45;;;;;;;2.93;2.77;;;-40.00;99.90;;;;;;5138800;27;20242;-78
2022/06/07 00:11:11;;;;;;;10.20;2.63;;;-40.00;99.90;;;;;;5140675;27;20496;-73
2022/06/07 00:13:38;;;;;;;6.23;3.10;;;-40.00;99.90;;;;;;5140579;27;20173;-75
2022/06/07 00:16:04;;;;;;;3.40;2.50;;;-40.00;99.90;;;;;;5140547;27;20212;-75
2022/06/07 00:18:30;;;;;;;3.00;2.73;;;-40.00;99.90;;;;;;5139182;27;20344;-74
2022/06/07 00:20:56;;;;;;;10.03;3.07;;;-40.00;99.90;;;;;;5140232;27;20294;-77
2022/06/07 00:23:21;;;;;;;5.17;2.50;;;-40.00;99.90;;;;;;5140329;27;20226;-74
2022/06/07 00:25:52;;;;;;;3.33;2.20;;;-40.00;99.90;;;;;;5140554;27;20169;-71
2022/06/07 00:28:20;;;;;;;5.00;2.47;;;-40.00;99.90;;;;;;5140173;27;20287;-71
2022/06/07 00:30:46;;;;;;;7.07;2.70;;;-40.00;99.90;;;;;;5139089;27;20214;-75
2022/06/07 00:33:13;;;;;;;4.40;2.47;;;-40.00;99.90;;;;;;5138808;27;20168;-73
2022/06/07 00:35:39;;;;;;;3.80;2.50;;;-40.00;99.90;;;;;;5140076;27;20193;-68
2022/06/07 00:38:05;;;;;;;2.10;2.00;;;-40.00;99.90;;;;;;5140101;27;20241;-76
2022/06/07 00:40:32;;;;;;;5.13;2.03;;;-40.00;99.90;;;;;;5139215;27;20178;-72
2022/06/07 00:42:58;;;;;;;3.33;2.13;;;-40.00;99.90;;;;;;5140045;27;20218;-70
2022/06/07 00:45:24;;;;;;;2.57;2.37;;;-40.00;99.90;;;;;;5139688;27;20169;-65
2022/06/07 00:47:50;;;;;;;4.37;2.40;;;-40.00;99.90;;;;;;5139632;27;20226;-70
2022/06/07 00:50:22;;;;;;;5.37;2.37;;;-40.00;99.90;;;;;;5138733;27;20226;-65
2022/06/07 00:52:48;;;;;;;5.77;2.93;;;-40.00;99.90;;;;;;5139835;27;20196;-66
2022/06/07 00:55:14;;;;;;;6.57;3.17;;;-40.00;99.90;;;;;;5139749;27;20204;-67
2022/06/07 00:57:41;;;;;;;2.33;2.20;;;-40.00;99.90;;;;;;5139720;27;20176;-66
2022/06/07 01:00:09;;;;;;;4.27;2.80;;;-40.00;99.90;;;;;;5139642;27;20172;-68
2022/06/07 01:02:35;;;;;;;5.40;2.60;;;-40.00;99.90;;;;;;5139426;27;20533;-67
2022/06/07 01:05:01;;;;;;;7.90;3.10;;;-40.00;99.90;;;;;;5139258;27;20208;-64
2022/06/07 01:12:56;;;;;;;7.23;2.83;;;-40.00;99.90;;;;;;5139630;27;20214;-63
2022/06/07 01:15:22;;;;;;;7.43;2.63;;;-40.00;99.90;;;;;;5138073;27;20501;-64
2022/06/07 01:17:48;;;;;;;2.40;2.20;;;-40.00;99.90;;;;;;5138077;27;20169;-63
2022/06/07 01:20:14;;;;;;;2.63;2.43;;;-40.00;99.90;;;;;;5139188;27;20164;-65
2022/06/07 01:22:40;;;;;;;6.00;2.67;;;-40.00;99.90;;;;;;5139045;27;20166;-63
2022/06/07 01:25:07;;;;;;;4.87;2.60;;;-40.00;99.90;;;;;;5138997;27;20571;-64
2022/06/07 01:27:33;;;;;;;3.13;2.50;;;-40.00;99.90;;;;;;5139167;27;20662;-64
2022/06/07 01:29:58;;;;;;;7.80;2.87;;;-40.00;99.90;;;;;;5139351;27;20189;-64
2022/06/07 01:32:24;;;;;;;5.13;3.03;;;-40.00;99.90;;;;;;5138678;27;20182;-65
2022/06/07 01:34:50;;;;;;;4.27;2.73;;;-40.00;99.90;;;;;;5137787;27;20166;-66
2022/06/07 01:37:19;;;;;;;3.40;2.13;;;-40.00;99.90;;;;;;5138876;27;20169;-63
2022/06/07 01:42:30;;;;;;;7.47;3.20;;;-40.00;99.90;;;;;;5139158;27;20228;-68
2022/06/07 01:44:56;;;;;;;2.47;2.37;;;-40.00;99.90;;;;;;5138686;27;20168;-63
2022/06/07 01:47:25;;;;;;;4.20;2.33;;;-40.00;99.90;;;;;;5138567;27;20160;-65
2022/06/07 01:49:51;;;;;;;3.33;3.07;;;-40.00;99.90;;;;;;5138492;27;20198;-68
2022/06/07 01:52:20;;;;;;;2.93;2.47;;;-40.00;99.90;;;;;;5138705;27;20551;-65
2022/06/07 01:54:46;;;;;;;3.53;2.77;;;-40.00;99.90;;;;;;5138579;27;20164;-65
2022/06/07 01:57:12;;;;;;;4.60;2.47;;;-40.00;99.90;;;;;;5138667;27;20539;-64
2022/06/07 01:59:38;;;;;;;5.53;3.43;;;-40.00;99.90;;;;;;5137464;27;20172;-64
2022/06/07 02:02:06;;;;;;;3.80;2.50;;;-40.00;99.90;;;;;;5138028;27;20663;-64
2022/06/07 02:04:32;;;;;;;2.93;2.60;;;-40.00;99.90;;;;;;5138256;27;20209;-65
2022/06/07 02:06:58;;;;;;;4.60;2.73;;;-40.00;99.90;;;;;;5138308;27;20184;-64
2022/06/07 02:09:23;;;;;;;3.47;2.33;;;-40.00;99.90;;;;;;5138284;27;20199;-65
2022/06/07 02:11:49;;;;;;;3.30;2.23;;;-40.00;99.90;;;;;;5138046;27;20168;-66
2022/06/07 02:14:15;;;;;;;4.47;2.60;;;-40.00;99.90;;;;;;5138309;27;20169;-65
2022/06/07 02:16:41;;;;;;;4.30;2.90;;;-40.00;99.90;;;;;;5137794;27;20211;-65
2022/06/07 02:19:07;;;;;;;6.07;2.87;;;-40.00;99.90;;;;;;5137091;27;20180;-64
2022/06/07 02:21:33;;;;;;;4.00;2.70;;;-40.00;99.90;;;;;;5137889;27;20173;-63
2022/06/07 02:23:59;;;;;;;6.73;4.63;;;-40.00;99.90;;;;;;5138055;27;20198;-63
2022/06/07 02:26:41;;;;;;;3.27;2.60;;;-40.00;99.90;;;;;;5137856;27;20245;-65
2022/06/07 02:29:25;;;;;;;4.37;2.63;;;-40.00;99.90;;;;;;5136899;27;20237;-64
2022/06/07 02:32:24;;;;;;;3.40;3.10;;;-40.00;99.90;;;;;;5137233;27;20173;-63
2022/06/07 02:34:53;;;;;;;3.27;2.97;;;-40.00;99.90;;;;;;5134575;27;20191;-63
2022/06/07 02:37:20;;;;;;;4.67;2.50;;;-40.00;99.90;;;;;;5137710;27;20622;-63
2022/06/07 02:39:46;;;;;;;4.97;2.93;;;-40.00;99.90;;;;;;5137713;27;20160;-62
2022/06/07 02:42:14;;;;;;;3.43;2.90;;;-40.00;99.90;;;;;;5137578;27;20255;-63
2022/06/07 02:44:40;;;;;;;4.60;2.93;;;-40.00;99.90;;;;;;5137368;27;20169;-64
2022/06/07 02:47:06;;;;;;;7.60;3.77;;;-40.00;99.90;;;;;;5137511;27;20199;-64
2022/06/07 02:49:32;;;;;;;6.50;2.90;;;-40.00;99.90;;;;;;5137369;27;20202;-64
2022/06/07 02:51:58;;;;;;;3.00;2.80;;;-40.00;99.90;;;;;;5137700;27;20165;-64
2022/06/07 02:54:24;;;;;;;4.40;3.60;;;-40.00;99.90;;;;;;5137447;27;20156;-64
2022/06/07 02:56:49;;;;;;;5.17;4.20;;;-40.00;99.90;;;;;;5137296;27;20252;-63
2022/06/07 02:59:15;;;;;;;4.13;2.30;;;-40.00;99.90;;;;;;5137135;27;20165;-64
2022/06/07 03:01:41;;;;;;;3.43;2.37;;;-40.00;99.90;;;;;;5137209;27;20165;-65
2022/06/07 03:04:07;;;;;;;10.23;3.20;;;-40.00;99.90;;;;;;5137394;27;20171;-63
2022/06/07 03:06:32;;;;;;;3.37;2.37;;;-40.00;99.90;;;;;;5137234;27;20190;-66
2022/06/07 03:08:58;;;;;;;3.33;3.00;;;-40.00;99.90;;;;;;5137149;27;20193;-65
2022/06/07 03:11:24;;;;;;;3.53;3.07;;;-40.00;99.90;;;;;;5137182;27;20579;-68
2022/06/07 03:13:50;;;;;;;2.97;2.47;;;-40.00;99.90;;;;;;5136973;27;20183;-65
2022/06/07 03:16:16;;;;;;;4.73;3.27;;;-40.00;99.90;;;;;;5137251;27;20461;-65
2022/06/07 03:18:42;;;;;;;5.97;2.67;;;-40.00;99.90;;;;;;5137089;27;20173;-65
2022/06/07 03:21:08;;;;;;;5.60;2.63;;;-40.00;99.90;;;;;;5137215;27;20166;-65
2022/06/07 03:23:34;;;;;;;3.83;1.97;;;-40.00;99.90;;;;;;5136918;27;20244;-66
2022/06/07 03:26:08;;;;;;;3.80;2.30;;;-40.00;99.90;;;;;;5137104;27;20192;-68
2022/06/07 03:28:35;;;;;;;4.40;2.20;;;-40.00;99.90;;;;;;5136400;27;20239;-71
2022/06/07 03:31:15;;;;;;;3.27;2.27;;;-40.00;99.90;;;;;;5136983;27;20439;-67
2022/06/07 03:33:42;;;;;;;4.60;2.13;;;-40.00;99.90;;;;;;5136841;27;20165;-71
2022/06/07 03:36:13;;;;;;;10.53;2.23;;;-40.00;99.90;;;;;;5136773;27;20288;-76
2022/06/07 03:38:41;;;;;;;4.63;2.23;;;-40.00;99.90;;;;;;5136631;27;20242;-78
2022/06/07 03:41:08;;;;;;;6.60;3.77;;;-40.00;99.90;;;;;;5136568;27;20165;-72
2022/06/07 03:43:35;;;;;;;5.07;2.93;;;-40.00;99.90;;;;;;5135498;27;20241;-74
2022/06/07 03:46:13;;;;;;;6.57;2.63;;;-40.00;99.90;;;;;;5136752;27;20169;-67
2022/06/07 03:48:44;;;;;;;2.43;2.00;;;-40.00;99.90;;;;;;5135296;27;20273;-70
2022/06/07 03:51:11;;;;;;;6.20;2.73;;;-40.00;99.90;;;;;;5135433;27;20196;-69
2022/06/07 03:53:38;;;;;;;3.10;2.10;;;-40.00;99.90;;;;;;5136422;27;20169;-72
2022/06/07 03:56:04;;;;;;;2.23;2.13;;;-40.00;99.90;;;;;;5136635;27;20778;-72
2022/06/07 03:58:30;;;;;;;3.33;1.90;;;-40.00;99.90;;;;;;5136167;27;20169;-69
2022/06/07 04:01:01;;;;;;;3.60;2.00;;;-40.00;99.90;;;;;;5136346;27;20193;-70
2022/06/07 04:03:28;;;;;;;3.53;1.80;;;-40.00;99.90;;;;;;5136380;27;20169;-71
2022/06/07 04:05:55;;;;;;;1.63;1.53;;;-40.00;99.90;;;;;;5136351;27;20173;-65
2022/06/07 04:08:21;;;;;;;6.17;2.20;;;-40.00;99.90;;;;;;5135167;28;20211;-75
2022/06/07 04:11:00;;;;;;;3.77;2.10;;;-40.00;99.90;;;;;;5135922;27;20790;-72
2022/06/07 04:13:29;;;;;;;1.77;1.67;;;-40.00;99.90;;;;;;5136229;27;20198;-69
2022/06/07 04:15:55;;;;;;;2.27;1.93;;;-40.00;99.90;;;;;;5136341;27;20173;-70
2022/06/07 04:18:21;;;;;;;7.43;2.60;;;-40.00;99.90;;;;;;5136212;27;20173;-68
2022/06/07 04:20:47;;;;;;;8.20;2.83;;;-40.00;99.90;;;;;;5136195;27;20490;-69
2022/06/07 04:23:19;;;;;;;2.07;1.90;;;-40.00;99.90;;;;;;5136209;27;20170;-70
2022/06/07 04:25:45;;;;;;;4.83;2.13;;;-40.00;99.90;;;;;;5135958;27;20238;-72
2022/06/07 04:28:12;;;;;;;2.53;1.97;;;-40.00;99.90;;;;;;5136139;27;20193;-67
2022/06/07 04:30:43;;;;;;;4.43;1.90;;;-40.00;99.90;;;;;;5136430;27;20472;-72
2022/06/07 04:33:08;;;;;;;3.47;1.87;;;-40.00;99.90;;;;;;5134958;28;20280;-69
2022/06/07 04:35:34;;;;;;;3.67;2.33;;;-40.00;99.90;;;;;;5136002;27;20277;-75
2022/06/07 04:38:00;;;;;;;7.03;2.80;;;-40.00;99.90;;;;;;5136144;27;20170;-70
2022/06/07 04:40:26;;;;;;;3.20;2.17;;;-40.00;99.90;;;;;;5135838;27;20549;-71
2022/06/07 04:42:52;;;;;;;2.70;2.27;;;-40.00;99.90;;;;;;5135937;27;20190;-73
2022/06/07 04:45:18;;;;;;;7.30;2.87;;;-40.00;99.90;;;;;;5136228;27;20219;-76
2022/06/07 04:47:45;;;;;;;6.13;2.37;;;-40.00;99.90;;;;;;5136020;27;20420;-71
2022/06/07 04:50:15;;;;;;;3.17;2.07;;;-40.00;99.90;;;;;;5135831;27;20220;-77
2022/06/07 04:52:43;;;;;;;4.53;1.60;;;-40.00;99.90;;;;;;5135804;27;20158;-72
2022/06/07 04:55:09;;;;;;;4.50;2.30;;;-40.00;99.90;;;;;;5138561;27;20637;-68
2022/06/07 04:57:35;;;;;;;6.00;2.47;;;-40.00;99.90;;;;;;5139912;27;20188;-75
2022/06/07 05:00:03;;;;;;;4.17;2.47;;;-40.00;99.90;;;;;;5139689;27;20349;-67
2022/06/07 05:02:29;;;;;;;2.87;2.27;;;-40.00;99.90;;;;;;5138572;27;20648;-71
2022/06/07 05:04:54;;;;;;;6.60;2.50;;;-40.00;99.90;;;;;;5139092;27;20256;-75
2022/06/07 05:07:20;;;;;;;3.00;1.90;;;-40.00;99.90;;;;;;5139344;27;20498;-77
2022/06/07 05:09:48;;;;;;;6.83;2.73;;;-40.00;99.90;;;;;;5138834;27;20197;-73
2022/06/07 05:12:16;;;;;;;2.13;2.03;;;-40.00;99.90;;;;;;5139573;27;20215;-73
2022/06/07 05:14:45;;;;;;;5.53;1.90;;;-40.00;99.90;;;;;;5139265;27;20271;-76
2022/06/07 05:17:11;;;;;;;2.17;2.00;;;-40.00;99.90;;;;;;5139560;27;20161;-75
2022/06/07 05:19:38;;;;;;;4.03;2.43;;;-40.00;99.90;;;;;;5139200;27;20172;-73
2022/06/07 05:22:04;;;;;;;2.20;1.80;;;-40.00;99.90;;;;;;5139301;27;20162;-74
2022/06/07 05:24:30;;;;;;;10.60;2.60;;;-40.00;99.90;;;;;;5138995;27;20170;-74
2022/06/07 05:26:59;;;;;;;2.43;1.77;;;-40.00;99.90;;;;;;5139187;27;20214;-70
2022/06/07 05:29:47;;;;;;;2.43;2.20;;;-40.00;99.90;;;;;;5139096;27;20501;-75
2022/06/07 05:32:14;;;;;;;5.23;1.63;;;-40.00;99.90;;;;;;5138818;27;20177;-75
2022/06/07 05:34:39;;;;;;;3.33;1.90;;;-40.00;99.90;;;;;;5138891;27;20169;-74
2022/06/07 05:37:05;;;;;;;3.80;1.90;;;-40.00;99.90;;;;;;5138911;27;20185;-72
2022/06/07 05:39:31;;;;;;;3.43;2.50;;;-40.00;99.90;;;;;;5137695;27;20173;-70
2022/06/07 05:41:58;;;;;;;2.10;1.97;;;-40.00;99.90;;;;;;5138944;27;20522;-70
2022/06/07 05:44:25;;;;;;;2.60;2.10;;;-40.00;99.90;;;;;;5138967;27;20181;-71
2022/06/07 05:46:52;;;;;;;2.93;2.10;;;-40.00;99.90;;;;;;5149346;27;20180;-77
2022/06/07 05:49:19;;;;;;;2.60;2.07;;;-40.00;99.90;;;;;;5140242;27;20673;-77
2022/06/07 05:51:45;;;;;;;6.30;1.53;;;-40.00;99.90;;;;;;5138588;27;20162;-78
2022/06/07 05:54:12;;;;;;;3.00;1.90;;;-40.00;99.90;;;;;;5138431;27;20169;-71
2022/06/07 05:56:39;;;;;;;3.13;2.67;;;-40.00;99.90;;;;;;5138565;27;20181;-69
2022/06/07 05:59:05;;;;;;;2.17;1.97;;;-40.00;99.90;;;;;;5138635;27;20491;-69
2022/06/07 06:01:32;;;;;;;3.63;3.33;;;-40.00;99.90;;;;;;5138183;27;20197;-63
2022/06/07 06:03:58;;;;;;;2.37;2.13;;;-40.00;99.90;;;;;;5138241;27;20557;-67
2022/06/07 06:06:24;;;;;;;2.07;1.50;;;-40.00;99.90;;;;;;5137851;27;20572;-64
2022/06/07 06:11:36;;;;;;;3.40;2.10;;;-40.00;99.90;;;;;;5137185;27;20324;-66
2022/06/07 06:14:02;;;;;;;5.27;2.63;;;-40.00;99.90;;;;;;5137078;27;20169;-68
2022/06/07 06:16:32;;;;;;;5.60;2.60;;;-40.00;99.90;;;;;;5136219;27;20187;-69
2022/06/07 06:18:59;;;;;;;5.03;2.83;;;-40.00;99.90;;;;;;5137508;27;20181;-70
2022/06/07 06:21:28;;;;;;;7.77;2.57;;;-40.00;99.90;;;;;;5137226;27;20185;-70
2022/06/07 06:23:58;;;;;;;4.37;2.43;;;-40.00;99.90;;;;;;5137913;27;20169;-66
2022/06/07 06:26:24;;;;;;;3.80;2.17;;;-40.00;99.90;;;;;;5137843;27;20177;-64
2022/06/07 06:28:50;;;;;;;4.60;2.30;;;-40.00;99.90;;;;;;5137862;27;20195;-69
2022/06/07 06:31:16;;;;;;;3.93;2.77;;;-40.00;99.90;;;;;;5137447;27;20182;-67
2022/06/07 06:33:45;;;;;;;7.57;3.97;;;-40.00;99.90;;;;;;5137910;27;20158;-70
2022/06/07 06:36:13;;;;;;;21.37;12.33;;;-40.00;99.90;;;;;;5137742;27;20181;-73
2022/06/07 06:38:40;;;;;;;6.67;3.80;;;-40.00;99.90;;;;;;5137356;27;20283;-69
2022/06/07 06:41:12;;;;;;;8.67;2.30;;;-40.00;99.90;;;;;;5137969;27;20575;-77
2022/06/07 06:43:39;;;;;;;3.43;1.80;;;-40.00;99.90;;;;;;5137092;27;20268;-72
2022/06/07 06:46:07;;;;;;;3.57;1.90;;;-40.00;99.90;;;;;;5135947;27;20222;-68
2022/06/07 06:48:32;;;;;;;4.07;2.20;;;-40.00;99.90;;;;;;5137775;27;20185;-67
2022/06/07 06:51:00;;;;;;;4.80;1.50;;;-40.00;99.90;;;;;;5137654;27;20172;-70
2022/06/07 06:53:27;;;;;;;5.37;1.80;;;-40.00;99.90;;;;;;5136672;27;20204;-71
2022/06/07 06:55:55;;;;;;;4.50;1.87;;;-40.00;99.90;;;;;;5137594;27;20169;-68
2022/06/07 06:58:21;;;;;;;1.60;1.50;;;-40.00;99.90;;;;;;5136647;27;20178;-67
2022/06/07 07:00:49;;;;;;;2.90;2.03;;;-40.00;99.90;;;;;;5137171;27;20176;-72
2022/06/07 07:03:14;;;;;;;6.00;5.70;;;-40.00;99.90;;;;;;5098168;27;20177;-68
2022/06/07 07:05:41;;;;;;;5.90;1.93;;;-40.00;99.90;;;;;;5131148;27;20697;-67
2022/06/07 07:08:07;;;;;;;3.80;1.83;;;-40.00;99.90;;;;;;5124236;27;20226;-68
2022/06/07 07:10:33;;;;;;;2.53;1.77;;;-40.00;99.90;;;;;;5133025;27;20197;-68
2022/06/07 07:12:58;;;;;;;3.17;1.93;;;-40.00;99.90;;;;;;5131940;27;20177;-69
2022/06/07 07:15:24;;;;;;;5.47;2.40;;;-40.00;99.90;;;;;;5133018;27;20214;-68
2022/06/07 07:17:50;;;;;;;2.77;2.20;;;-40.00;99.90;;;;;;5133261;27;20669;-73
2022/06/07 07:20:16;;;;;;;2.63;1.67;;;-40.00;99.90;;;;;;5133535;27;20255;-67
2022/06/07 07:22:42;;;;;;;5.77;2.00;;;-40.00;99.90;;;;;;5132502;27;20610;-67
2022/06/07 07:25:09;;;;;;;3.17;2.03;;;-40.00;99.90;;;;;;5132569;27;20173;-68
2022/06/07 07:27:35;;;;;;;4.87;2.43;;;-40.00;99.90;;;;;;5133322;27;20584;-81
2022/06/07 07:30:01;;;;;;;6.83;2.40;;;-40.00;99.90;;;;;;5132931;27;20246;-69
2022/06/07 07:32:26;;;;;;;2.93;1.83;;;-40.00;99.90;;;;;;5132592;27;20180;-76
2022/06/07 07:34:52;;;;;;;3.00;1.83;;;-40.00;99.90;;;;;;5132582;27;20554;-79
2022/06/07 07:37:18;;;;;;;5.10;3.07;;;-40.00;99.90;;;;;;5133052;27;20190;-73
2022/06/07 07:39:44;;;;;;;7.63;2.50;;;-40.00;99.90;;;;;;5132840;27;20181;-75
2022/06/07 07:42:10;;;;;;;6.23;2.27;;;-40.00;99.90;;;;;;5133270;27;20580;-76
2022/06/07 07:44:37;;;;;;;4.53;2.73;;;-40.00;99.90;;;;;;5131854;27;20254;-78
2022/06/07 07:47:03;;;;;;;3.43;2.37;;;-40.00;99.90;;;;;;5132331;27;20173;-77
2022/06/07 07:49:30;;;;;;;4.90;2.83;;;-40.00;99.90;;;;;;5131338;27;20656;-77
2022/06/07 07:51:56;;;;;;;2.53;2.30;;;-40.00;99.90;;;;;;5131406;27;20184;-76
2022/06/07 07:54:24;;;;;;;4.70;2.33;;;-40.00;99.90;;;;;;5132769;27;20252;-75
2022/06/07 07:56:50;;;;;;;3.53;1.50;;;-40.00;99.90;;;;;;5132903;27;20173;-78
2022/06/07 07:59:19;;;;;;;2.00;1.63;;;-40.00;99.90;;;;;;5132429;27;20173;-76
2022/06/07 08:01:45;;;;;;;7.57;2.17;;;-40.00;99.90;;;;;;5132466;27;20220;-73
2022/06/07 08:04:12;;;;;;;3.57;1.87;;;-40.00;99.90;;;;;;5130104;27;20212;-80
2022/06/07 08:06:38;;;;;;;3.43;3.00;;;-40.00;99.90;;;;;;5130169;28;20177;-80
2022/06/07 08:09:06;;;;;;;2.80;2.40;;;-40.00;99.90;;;;;;5132115;27;20508;-77
2022/06/07 08:11:35;;;;;;;2.10;2.00;;;-40.00;99.90;;;;;;5132891;28;20173;-79
2022/06/07 08:14:03;;;;;;;1.90;1.80;;;-40.00;99.90;;;;;;5133509;27;20200;-81
2022/06/07 08:16:29;;;;;;;5.17;1.93;;;-40.00;99.90;;;;;;5132877;27;20169;-79
2022/06/07 08:18:54;;;;;;;4.33;2.70;;;-40.00;99.90;;;;;;5132965;27;20219;-78
2022/06/07 08:21:25;;;;;;;2.43;2.10;;;-40.00;99.90;;;;;;5133287;27;20595;-77
2022/06/07 08:23:53;;;;;;;10.23;2.40;;;-40.00;99.90;;;;;;5131465;28;20177;-77
2022/06/07 08:26:19;;;;;;;6.40;2.77;;;-40.00;99.90;;;;;;5133069;27;20180;-77
2022/06/07 08:28:46;;;;;;;7.43;2.20;;;-40.00;99.90;;;;;;5133068;27;20201;-73
2022/06/07 08:31:18;;;;;;;4.83;3.03;;;-40.00;99.90;;;;;;5136842;27;20489;-78
2022/06/07 08:39:14;;;;;;;2.27;2.07;;;-40.00;99.90;;;;;;5136052;27;20215;-77
2022/06/07 08:42:17;;;;;;;4.57;2.73;;;-40.00;99.90;;;;;;5136253;27;20178;-76
2022/06/07 08:44:46;;;;;;;5.83;2.67;;;-40.00;99.90;;;;;;5116568;27;20551;-75
2022/06/07 08:47:30;;;;;;;3.30;3.10;;;-40.00;99.90;;;;;;5135979;27;20660;-78
2022/06/07 08:50:00;;;;;;;5.07;2.27;;;-40.00;99.90;;;;;;5136375;27;20223;-79
2022/06/07 08:52:30;;;;;;;3.00;2.80;;;-40.00;99.90;;;;;;5135984;27;20210;-72
2022/06/07 08:54:58;;;;;;;2.63;2.43;;;-40.00;99.90;;;;;;5135882;27;20639;-76
2022/06/07 08:57:34;;;;;;;5.97;3.33;;;-40.00;99.90;;;;;;5135368;27;20173;-69
2022/06/07 09:00:21;;;;;;;5.07;2.90;;;-40.00;99.90;;;;;;5136019;27;20263;-70
2022/06/07 09:03:24;;;;;;;3.67;2.67;;;-40.00;99.90;;;;;;5135358;27;20193;-72
2022/06/07 09:06:00;;;;;;;5.83;3.00;;;-40.00;99.90;;;;;;5136658;27;20181;-77
2022/06/07 09:08:44;;;;;;;5.13;4.67;;;-40.00;99.90;;;;;;5133943;27;20249;-71
2022/06/07 09:14:11;;;;;;;16.10;10.23;;;-40.00;99.90;;;;;;5136374;27;20594;-68
2022/06/07 09:16:43;;;;;;;5.80;5.33;;;-40.00;99.90;;;;;;5135065;27;20252;-68
2022/06/07 09:19:12;;;;;;;6.00;5.00;;;-40.00;99.90;;;;;;5135252;27;20188;-69
2022/06/07 09:21:42;;;;;;;6.30;5.17;;;-40.00;99.90;;;;;;5134762;27;20643;-70
2022/06/07 09:24:39;;;;;;;8.53;4.93;;;-40.00;99.90;;;;;;5133920;27;20177;-68
2022/06/07 09:27:25;;;;;;;5.93;4.20;;;-40.00;99.90;;;;;;5131485;27;20569;-71
2022/06/07 09:29:58;;;;;;;4.53;3.70;;;-40.00;99.90;;;;;;5130509;27;20505;-73
2022/06/07 09:32:27;;;;;;;4.37;3.07;;;-40.00;99.90;;;;;;5135400;27;20227;-72
2022/06/07 09:35:00;;;;;;;3.77;3.23;;;-40.00;99.90;;;;;;5135214;27;20204;-70
2022/06/07 09:37:47;;;;;;;3.80;3.03;;;-40.00;99.90;;;;;;5135168;27;20173;-69
2022/06/07 09:40:30;;;;;;;3.50;3.27;;;-40.00;99.90;;;;;;5133654;27;20224;-72
2022/06/07 09:43:11;;;;;;;3.23;2.93;;;-40.00;99.90;;;;;;5135265;27;20192;-69
2022/06/07 09:45:46;;;;;;;4.33;3.63;;;-40.00;99.90;;;;;;5134976;27;20169;-69
2022/06/07 09:48:38;;;;;;;5.17;3.63;;;-40.00;99.90;;;;;;5135215;27;20208;-75
2022/06/07 09:51:15;;;;;;;3.53;3.33;;;-40.00;99.90;;;;;;5132082;27;20169;-68
2022/06/07 09:53:44;;;;;;;6.60;3.23;;;-40.00;99.90;;;;;;5134380;27;20173;-68
2022/06/07 09:56:21;;;;;;;4.87;3.73;;;-40.00;99.90;;;;;;5133390;27;20238;-68
2022/06/07 09:59:24;;;;;;;3.60;3.40;;;-40.00;99.90;;;;;;5133912;27;20181;-68
2022/06/07 10:02:28;;;;;;;7.67;3.73;;;-40.00;99.90;;;;;;5107956;27;20178;-70
2022/06/07 10:04:53;;;;;;;12.03;4.23;;;-40.00;99.90;;;;;;5131736;27;20173;-71
2022/06/07 10:07:41;;;;;;;2.87;2.37;;;-40.00;99.90;;;;;;5132870;27;20184;-70
2022/06/07 10:10:47;;;;;;;2.47;2.23;;;-40.00;99.90;;;;;;5133912;27;20219;-68
2022/06/07 10:13:13;;;;;;;4.27;2.67;;;-40.00;99.90;;;;;;5133412;27;20205;-72
2022/06/07 10:16:02;;;;;;;4.60;2.97;;;-40.00;99.90;;;;;;5134340;27;20673;-69
2022/06/07 10:18:45;;;;;;;2.60;2.40;;;-40.00;99.90;;;;;;5134395;27;20189;-71
2022/06/07 10:21:19;;;;;;;2.83;1.97;;;-40.00;99.90;;;;;;5133462;27;20186;-67
2022/06/07 10:23:48;;;;;;;3.77;1.80;;;-40.00;99.90;;;;;;5133897;27;20177;-69
2022/06/07 10:26:28;;;;;;;2.17;2.00;;;-40.00;99.90;;;;;;5134433;27;20265;-70
2022/06/07 10:29:17;;;;;;;3.23;2.93;;;-40.00;99.90;;;;;;5129888;27;20239;-69
2022/06/07 10:31:57;;;;;;;3.20;2.17;;;-40.00;99.90;;;;;;5132849;27;20217;-70
2022/06/07 10:34:38;;;;;;;2.40;2.30;;;-40.00;99.90;;;;;;5131535;27;20177;-69
2022/06/07 10:37:31;;;;;;;2.57;2.37;;;-40.00;99.90;;;;;;5132309;27;20209;-70
2022/06/07 10:40:17;;;;;;;5.23;2.80;;;-40.00;99.90;;;;;;5131972;27;20260;-70
2022/06/07 10:43:01;;;;;;;5.53;2.30;;;-40.00;99.90;;;;;;5135451;27;20202;-71
2022/06/07 10:45:31;;;;;;;5.00;4.77;;;-40.00;99.90;;;;;;5123057;27;20215;-70
2022/06/07 10:48:06;;;;;;;4.33;3.20;;;-40.00;99.90;;;;;;5104762;27;20322;-69
2022/06/07 10:52:20;;;;;;;2.73;2.53;;;-40.00;99.90;;;;;;5131352;27;20458;-69
2022/06/07 10:53:57;;;;;;;3.03;2.47;;;-40.00;99.90;;;;;;5133214;27;20173;-69
2022/06/07 10:56:32;;;;;;;3.10;2.90;;;-40.00;99.90;;;;;;5131932;27;21385;-71
2022/06/07 10:59:01;;;;;;;3.87;3.00;;;-40.00;99.90;;;;;;5133150;27;20169;-69
2022/06/07 11:01:45;;;;;;;4.40;4.00;;;-40.00;99.90;;;;;;5132759;27;20169;-72
2022/06/07 11:10:30;;;;;;;4.10;3.80;;;-40.00;99.90;;;;;;5132614;27;20220;-69
2022/06/07 11:13:02;;;;;;;6.97;4.50;;;-40.00;99.90;;;;;;5133822;27;20172;-70
2022/06/07 11:15:44;;;;;;;4.60;4.20;;;-40.00;99.90;;;;;;5133615;27;20180;-68
2022/06/07 11:18:17;;;;;;;5.93;5.43;;;-40.00;99.90;;;;;;5133142;27;20216;-69
2022/06/07 11:21:20;;;;;;;4.73;4.47;;;-40.00;99.90;;;;;;5133412;27;20204;-69
2022/06/07 11:23:56;;;;;;;6.37;4.43;;;-40.00;99.90;;;;;;5132971;27;20180;-69
2022/06/07 11:26:22;;;;;;;6.73;4.43;;;-40.00;99.90;;;;;;5132401;27;20180;-73
2022/06/07 11:28:53;;;;;;;7.83;5.30;;;-40.00;99.90;;;;;;5133495;27;20186;-71
2022/06/07 11:31:31;;;;;;;5.30;4.67;;;-40.00;99.90;;;;;;5131777;27;20185;-71
2022/06/07 11:34:01;;;;;;;4.93;4.53;;;-40.00;99.90;;;;;;5133496;27;20610;-75
2022/06/07 11:36:31;;;;;;;5.47;4.33;;;-40.00;99.90;;;;;;5133495;27;20189;-72
2022/06/07 11:39:17;;;;;;;4.87;4.47;;;-40.00;99.90;;;;;;5132010;27;20226;-69
2022/06/07 11:41:48;;;;;;;4.57;4.27;;;-40.00;99.90;;;;;;5133158;27;20209;-69
2022/06/07 11:44:16;;;;;;;4.70;4.40;;;-40.00;99.90;;;;;;5132248;27;20184;-69
2022/06/07 11:46:51;;;;;;;6.73;4.77;;;-40.00;99.90;;;;;;5132334;27;20208;-69
2022/06/07 11:49:20;;;;;;;9.63;4.67;;;-40.00;99.90;;;;;;5131615;27;20231;-70
2022/06/07 11:52:11;;;;;;;6.17;4.33;;;-40.00;99.90;;;;;;5131935;27;20255;-69
2022/06/07 11:54:46;;;;;;;4.20;3.90;;;-40.00;99.90;;;;;;5131636;27;20176;-70
2022/06/07 11:57:35;;;;;;;3.83;3.63;;;-40.00;99.90;;;;;;5130774;27;20179;-73
2022/06/07 12:00:22;;;;;;;3.40;3.20;;;-40.00;99.90;;;;;;5132694;27;20177;-71
2022/06/07 12:02:56;;;;;;;3.73;3.43;;;-40.00;99.90;;;;;;5132700;27;20282;-70
2022/06/07 12:05:45;;;;;;;4.53;3.37;;;-40.00;99.90;;;;;;5131235;27;20207;-69
2022/06/07 12:08:23;;;;;;;4.33;4.03;;;-40.00;99.90;;;;;;5132647;27;20207;-70
2022/06/07 12:11:21;;;;;;;6.37;3.90;;;-40.00;99.90;;;;;;5132128;27;20205;-69
2022/06/07 12:14:10;;;;;;;4.37;4.07;;;-40.00;99.90;;;;;;5131732;27;20218;-69
2022/06/07 12:16:52;;;;;;;6.47;3.63;;;-40.00;99.90;;;;;;5132484;27;20177;-68
2022/06/07 12:19:33;;;;;;;4.83;4.53;;;-40.00;99.90;;;;;;5132590;27;20490;-68
2022/06/07 12:22:12;;;;;;;5.60;5.07;;;-40.00;99.90;;;;;;5132444;28;20187;-69
2022/06/07 12:24:49;;;;;;;5.10;4.80;;;-40.00;99.90;;;;;;5132803;27;20208;-68
2022/06/07 12:27:21;;;;;;;5.10;4.70;;;-40.00;99.90;;;;;;5131423;27;20297;-69
2022/06/07 12:29:47;;;;;;;8.80;6.23;;;-40.00;99.90;;;;;;5131195;28;20224;-71
2022/06/07 12:32:29;;;;;;;6.40;6.00;;;-40.00;99.90;;;;;;5130903;27;20233;-68
2022/06/07 12:35:19;;;;;;;5.63;5.13;;;-40.00;99.90;;;;;;5132383;27;20173;-72
2022/06/07 12:37:52;;;;;;;6.33;5.37;;;-40.00;99.90;;;;;;5131127;28;20174;-69
2022/06/07 12:40:23;;;;;;;5.87;5.33;;;-40.00;99.90;;;;;;5132055;27;20176;-70
2022/06/07 12:42:49;;;;;;;7.67;6.07;;;-40.00;99.90;;;;;;5132554;27;20185;-68
2022/06/07 12:45:21;;;;;;;8.33;6.23;;;-40.00;99.90;;;;;;5131707;27;20173;-68
2022/06/07 12:47:54;;;;;;;8.07;7.53;;;-40.00;99.90;;;;;;5130485;28;20268;-68
2022/06/07 12:50:24;;;;;;;11.47;7.00;;;-40.00;99.90;;;;;;5131268;27;20240;-68
2022/06/07 12:52:54;;;;;;;9.00;7.00;;;-40.00;99.90;;;;;;5131370;28;20620;-68
2022/06/07 12:55:24;;;;;;;7.53;6.87;;;-40.00;99.90;;;;;;5130274;28;20188;-69
2022/06/07 12:57:59;;;;;;;7.97;6.87;;;-40.00;99.90;;;;;;5132743;27;20242;-71
2022/06/07 13:00:34;;;;;;;6.77;6.33;;;-40.00;99.90;;;;;;5131475;28;20181;-69
2022/06/07 13:03:25;;;;;;;6.20;5.80;;;-40.00;99.90;;;;;;5132732;27;20203;-69
2022/06/07 13:06:18;;;;;;;6.67;6.03;;;-40.00;99.90;;;;;;5132334;27;20218;-68
2022/06/07 13:09:03;;;;;;;6.77;6.27;;;-40.00;99.90;;;;;;5131933;27;20220;-68
2022/06/07 13:11:33;;;;;;;7.03;6.53;;;-40.00;99.90;;;;;;5131499;27;20575;-71
2022/06/07 13:14:00;;;;;;;5.73;5.33;;;-40.00;99.90;;;;;;5132060;27;20181;-71
2022/06/07 13:16:42;;;;;;;5.53;5.13;;;-40.00;99.90;;;;;;5134036;27;20169;-67
2022/06/07 13:19:14;;;;;;;5.87;5.47;;;-40.00;99.90;;;;;;5133729;27;20173;-72
2022/06/07 13:22:02;;;;;;;5.23;4.83;;;-40.00;99.90;;;;;;5134802;27;20218;-69